Time;durP1;ratioP1;P1;durP2;ratioP2;P2;SDS_P1;SDS_P2;PMS_P1;PMS_P2;Temp;Humidity;BMP_temperature;BMP_pressure;BME280_temperature;BME280_humidity;BME280_pressure;Samples;Min_cycle;Max_cycle;Signal;HPM_P1;HPM_P2
2024/04/12 00:01:12;;;;;;;10.45;3.80;;;15.40;50.30;;;;;;5524848;25;20778;-74
2024/04/12 00:03:38;;;;;;;7.53;3.72;;;15.40;50.50;;;;;;5523958;25;20339;-74
2024/04/12 00:06:17;;;;;;;7.80;3.90;;;15.30;50.80;;;;;;5523740;25;20421;-73
2024/04/12 00:08:50;;;;;;;10.88;4.25;;;15.40;50.40;;;;;;5522850;25;20359;-73
2024/04/12 00:11:18;;;;;;;14.00;4.05;;;15.40;50.50;;;;;;5523128;25;20327;-71
2024/04/12 00:13:45;;;;;;;9.47;3.70;;;15.40;50.50;;;;;;5522732;25;20429;-72
2024/04/12 00:16:11;;;;;;;12.88;4.40;;;15.40;50.70;;;;;;5522478;25;20355;-71
2024/04/12 00:18:38;;;;;;;16.30;4.40;;;15.40;50.60;;;;;;5522519;25;20343;-73
2024/04/12 00:21:07;;;;;;;12.70;3.83;;;15.40;50.00;;;;;;5522880;25;20809;-73
2024/04/12 00:23:33;;;;;;;10.00;4.28;;;15.40;49.80;;;;;;5521864;25;20316;-73
2024/04/12 00:26:00;;;;;;;10.95;3.60;;;15.40;49.40;;;;;;5522732;25;20320;-72
2024/04/12 00:28:31;;;;;;;10.90;4.10;;;15.40;49.80;;;;;;5522573;25;20794;-71
2024/04/12 00:31:01;;;;;;;8.07;3.70;;;15.70;50.50;;;;;;5522440;25;20352;-71
2024/04/12 00:33:32;;;;;;;8.30;3.93;;;15.30;50.40;;;;;;5522064;25;20311;-72
2024/04/12 00:36:08;;;;;;;10.85;4.28;;;15.50;51.00;;;;;;5522598;25;20814;-72
2024/04/12 00:38:43;;;;;;;9.88;3.20;;;15.30;50.50;;;;;;5522039;25;20346;-71
2024/04/12 00:41:29;;;;;;;15.93;4.00;;;15.40;50.00;;;;;;5522074;25;20843;-73
2024/04/12 00:43:55;;;;;;;9.07;4.00;;;15.40;50.00;;;;;;5522047;25;20319;-72
2024/04/12 00:46:25;;;;;;;11.35;4.18;;;15.40;49.90;;;;;;5522320;25;20395;-72
2024/04/12 00:48:52;;;;;;;9.82;3.38;;;15.40;50.80;;;;;;5522219;25;20308;-73
2024/04/12 00:51:21;;;;;;;10.02;3.28;;;15.40;49.40;;;;;;5522131;25;20308;-72
2024/04/12 00:53:48;;;;;;;7.18;3.28;;;15.40;49.30;;;;;;5521773;25;20312;-72
2024/04/12 00:56:15;;;;;;;7.38;3.53;;;15.40;49.60;;;;;;5551523;25;20327;-72
2024/04/12 00:58:42;;;;;;;11.83;3.00;;;15.30;49.80;;;;;;5522159;25;20327;-71
2024/04/12 01:01:27;;;;;;;12.20;3.40;;;15.40;49.30;;;;;;5522175;25;20817;-71
2024/04/12 01:03:54;;;;;;;6.95;3.20;;;15.30;49.50;;;;;;5522143;25;20372;-73
2024/04/12 01:06:24;;;;;;;8.07;3.10;;;15.40;49.80;;;;;;5521837;25;20793;-73
2024/04/12 01:08:51;;;;;;;11.45;3.58;;;15.40;49.60;;;;;;5522238;25;20319;-71
2024/04/12 01:11:21;;;;;;;8.77;2.95;;;15.30;49.20;;;;;;5521910;25;20308;-72
2024/04/12 01:13:48;;;;;;;10.30;3.73;;;15.30;49.90;;;;;;5521584;25;20324;-72
2024/04/12 01:16:15;;;;;;;9.02;3.17;;;15.30;49.50;;;;;;5521864;25;20331;-72
2024/04/12 01:18:44;;;;;;;10.15;3.40;;;15.40;49.10;;;;;;5521869;25;20323;-72
2024/04/12 01:21:10;;;;;;;5.13;3.20;;;15.40;49.10;;;;;;5521891;25;20351;-70
2024/04/12 01:23:48;;;;;;;6.47;2.70;;;15.40;49.50;;;;;;5521651;25;20315;-71
2024/04/12 01:26:17;;;;;;;7.20;2.90;;;15.30;49.70;;;;;;5521561;25;20794;-71
2024/04/12 01:28:43;;;;;;;9.77;3.03;;;15.30;49.70;;;;;;5521539;25;20316;-71
2024/04/12 01:31:14;;;;;;;11.95;3.78;;;15.30;49.60;;;;;;5521454;25;20786;-71
2024/04/12 01:33:50;;;;;;;5.63;3.30;;;15.30;50.20;;;;;;5521307;25;20352;-72
2024/04/12 01:36:22;;;;;;;10.50;3.40;;;15.30;49.60;;;;;;5521526;25;20328;-72
2024/04/12 01:38:53;;;;;;;9.07;3.30;;;15.40;49.50;;;;;;5521395;25;20316;-71
2024/04/12 01:41:24;;;;;;;7.82;3.22;;;15.30;49.80;;;;;;5521737;25;20654;-72
2024/04/12 01:43:52;;;;;;;7.65;3.15;;;15.30;50.00;;;;;;5522195;25;20437;-72
2024/04/12 01:46:26;;;;;;;6.78;3.00;;;15.30;49.30;;;;;;5520444;25;20323;-72
2024/04/12 01:48:51;;;;;;;8.87;2.80;;;15.40;49.60;;;;;;5521696;25;20316;-72
2024/04/12 01:51:17;;;;;;;7.63;3.40;;;15.40;49.30;;;;;;5551586;25;20311;-72
2024/04/12 01:53:43;;;;;;;5.30;2.70;;;15.40;49.00;;;;;;5524942;25;20868;-72
2024/04/12 01:56:09;;;;;;;7.93;3.20;;;15.40;49.10;;;;;;5525745;25;20397;-72
2024/04/12 01:58:37;;;;;;;5.43;2.90;;;15.40;49.30;;;;;;5525668;25;20308;-71
2024/04/12 02:01:03;;;;;;;7.93;2.80;;;15.40;49.40;;;;;;5525612;25;20405;-73
2024/04/12 02:03:30;;;;;;;4.20;2.80;;;15.40;49.10;;;;;;5525159;25;20379;-72
2024/04/12 02:05:56;;;;;;;10.30;3.10;;;15.40;49.60;;;;;;5524928;25;20381;-72
2024/04/12 02:08:24;;;;;;;6.38;3.20;;;15.40;49.50;;;;;;5524716;25;20371;-72
2024/04/12 02:10:50;;;;;;;7.10;3.60;;;15.30;50.10;;;;;;5524847;25;20315;-72
2024/04/12 02:13:20;;;;;;;4.65;3.13;;;15.30;50.40;;;;;;5525266;25;20372;-73
2024/04/12 02:15:51;;;;;;;6.32;2.78;;;15.40;50.50;;;;;;5525174;25;20319;-73
2024/04/12 02:18:19;;;;;;;7.05;3.10;;;15.40;50.20;;;;;;5524810;25;20685;-72
2024/04/12 02:20:46;;;;;;;7.22;3.28;;;15.30;50.70;;;;;;5525554;25;20348;-73
2024/04/12 02:23:19;;;;;;;5.82;3.90;;;15.30;51.40;;;;;;5525803;25;20360;-73
2024/04/12 02:25:47;;;;;;;7.63;4.45;;;15.40;51.70;;;;;;5525029;25;20385;-72
2024/04/12 02:28:16;;;;;;;9.60;4.40;;;15.40;52.40;;;;;;5525423;25;20347;-73
2024/04/12 02:30:53;;;;;;;9.10;4.07;;;15.30;52.70;;;;;;5554082;25;20331;-71
2024/04/12 02:33:21;;;;;;;7.40;4.10;;;15.30;52.50;;;;;;5524315;25;20383;-73
2024/04/12 02:35:58;;;;;;;10.25;4.00;;;15.50;53.60;;;;;;5524787;25;20323;-73
2024/04/12 02:38:26;;;;;;;6.65;3.60;;;15.20;54.00;;;;;;5524949;25;20343;-73
2024/04/12 02:40:52;;;;;;;5.78;3.22;;;15.20;53.40;;;;;;5524416;25;20474;-73
2024/04/12 02:43:24;;;;;;;8.40;3.70;;;15.20;53.70;;;;;;5524450;25;20324;-73
2024/04/12 02:45:55;;;;;;;10.50;4.18;;;15.20;52.60;;;;;;5524585;25;20315;-73
2024/04/12 02:48:21;;;;;;;5.43;3.20;;;15.30;53.30;;;;;;5524521;25;20785;-72
2024/04/12 02:50:56;;;;;;;5.03;3.70;;;15.20;53.90;;;;;;5525168;25;20335;-73
2024/04/12 02:53:29;;;;;;;7.07;3.67;;;15.20;54.20;;;;;;5526678;25;20679;-72
2024/04/12 02:56:06;;;;;;;8.93;4.20;;;15.20;53.70;;;;;;5560398;25;20406;-73
2024/04/12 02:58:38;;;;;;;8.90;4.70;;;15.20;54.80;;;;;;5531011;25;20360;-73
2024/04/12 03:01:05;;;;;;;9.45;5.95;;;15.20;55.00;;;;;;5529023;25;20377;-74
2024/04/12 03:03:30;;;;;;;9.20;4.75;;;15.20;55.30;;;;;;5524854;25;20669;-73
2024/04/12 03:06:05;;;;;;;7.67;5.20;;;15.20;55.30;;;;;;5524649;25;20323;-72
2024/04/12 03:08:32;;;;;;;11.23;5.50;;;15.20;55.90;;;;;;5523900;25;20312;-71
2024/04/12 03:11:14;;;;;;;12.35;5.30;;;15.20;56.50;;;;;;5523958;25;20349;-71
2024/04/12 03:13:44;;;;;;;14.10;5.50;;;15.20;57.20;;;;;;5523704;25;20842;-73
2024/04/12 03:16:13;;;;;;;10.20;5.50;;;15.10;57.70;;;;;;5523997;25;20347;-72
2024/04/12 03:18:44;;;;;;;9.97;5.33;;;15.10;58.40;;;;;;5554198;25;21061;-72
2024/04/12 03:21:14;;;;;;;10.10;5.70;;;15.20;58.50;;;;;;5524024;25;20308;-72
2024/04/12 03:23:43;;;;;;;9.10;5.67;;;15.10;59.60;;;;;;5552913;25;20328;-73
2024/04/12 03:26:15;;;;;;;11.07;5.95;;;15.10;59.70;;;;;;5523677;25;20368;-72
2024/04/12 03:28:45;;;;;;;10.82;5.53;;;15.00;60.40;;;;;;5524012;25;20320;-72
2024/04/12 03:31:14;;;;;;;11.98;6.40;;;15.00;62.30;;;;;;5523811;25;20357;-73
2024/04/12 03:33:43;;;;;;;11.65;6.30;;;15.00;62.50;;;;;;5523199;25;20316;-73
2024/04/12 03:36:28;;;;;;;20.85;7.28;;;14.90;64.10;;;;;;5523628;25;20822;-73
2024/04/12 03:41:44;;;;;;;12.75;6.53;;;14.90;66.10;;;;;;5523866;26;20400;-73
2024/04/12 03:44:11;;;;;;;10.82;6.95;;;14.80;66.30;;;;;;5523678;25;20328;-73
2024/04/12 03:46:40;;;;;;;15.20;7.45;;;14.80;68.00;;;;;;5523374;25;20348;-71
2024/04/12 03:49:09;;;;;;;12.07;6.72;;;14.80;68.30;;;;;;5523354;25;20319;-72
2024/04/12 03:51:42;;;;;;;16.65;8.13;;;14.70;70.50;;;;;;5523395;25;20355;-72
2024/04/12 03:54:11;;;;;;;12.27;6.90;;;14.60;71.80;;;;;;5523539;25;20347;-72
2024/04/12 03:56:38;;;;;;;12.82;6.78;;;14.50;72.70;;;;;;5523618;25;20335;-72
2024/04/12 03:59:03;;;;;;;15.33;7.30;;;14.50;73.50;;;;;;5523574;25;20331;-72
2024/04/12 04:01:31;;;;;;;16.17;7.30;;;14.70;71.10;;;;;;5523975;25;20360;-73
2024/04/12 04:04:00;;;;;;;13.25;7.20;;;14.70;71.20;;;;;;5523550;25;20323;-73
2024/04/12 04:06:35;;;;;;;13.85;7.15;;;14.70;72.70;;;;;;5523670;25;20335;-73
2024/04/12 04:09:05;;;;;;;11.88;7.10;;;14.60;73.20;;;;;;5524320;25;20852;-73
2024/04/12 04:11:34;;;;;;;14.48;8.10;;;14.60;73.40;;;;;;5522527;25;20316;-73
2024/04/12 04:14:08;;;;;;;17.98;7.75;;;14.60;73.70;;;;;;5521506;25;20323;-72
2024/04/12 04:16:36;;;;;;;10.75;7.45;;;14.80;73.20;;;;;;5522922;25;20402;-72
2024/04/12 04:19:02;;;;;;;14.90;8.50;;;14.60;73.70;;;;;;5523164;25;20366;-72
2024/04/12 04:21:32;;;;;;;15.85;8.45;;;14.50;75.00;;;;;;5523066;25;20316;-72
2024/04/12 04:24:08;;;;;;;14.63;6.80;;;14.60;76.10;;;;;;5522846;25;20383;-72
2024/04/12 04:26:41;;;;;;;17.13;7.57;;;14.50;76.60;;;;;;5523028;25;20740;-72
2024/04/12 04:29:10;;;;;;;13.98;7.45;;;14.50;76.40;;;;;;5522577;25;20320;-73
2024/04/12 04:31:44;;;;;;;17.85;8.57;;;14.90;78.20;;;;;;5551354;25;20367;-72
2024/04/12 04:34:12;;;;;;;16.13;9.32;;;14.50;79.80;;;;;;5522570;25;20320;-73
2024/04/12 04:36:40;;;;;;;13.97;8.90;;;14.50;80.60;;;;;;5521054;25;21283;-73
2024/04/12 04:39:06;;;;;;;19.38;8.90;;;14.50;82.70;;;;;;5522737;25;20320;-73
2024/04/12 04:41:32;;;;;;;17.35;10.00;;;14.50;82.90;;;;;;5522757;25;20320;-73
2024/04/12 04:43:59;;;;;;;15.70;9.50;;;14.50;83.80;;;;;;5520545;25;20335;-72
2024/04/12 04:46:26;;;;;;;18.25;10.63;;;14.50;83.70;;;;;;5545645;21;20327;-72
2024/04/12 04:48:55;;;;;;;19.98;9.90;;;14.50;84.50;;;;;;5485269;26;20734;-72
2024/04/12 04:51:24;;;;;;;30.55;11.40;;;14.50;85.30;;;;;;5485033;26;20354;-72
2024/04/12 04:53:53;;;;;;;20.63;10.88;;;14.50;86.40;;;;;;5484891;26;20360;-73
2024/04/12 04:56:24;;;;;;;19.08;9.63;;;14.40;87.30;;;;;;5485275;26;20361;-73
2024/04/12 04:58:53;;;;;;;19.43;10.10;;;14.40;87.90;;;;;;5486883;26;20322;-73
2024/04/12 05:01:19;;;;;;;20.70;9.80;;;14.40;88.60;;;;;;5488835;26;20333;-71
2024/04/12 05:03:49;;;;;;;21.08;10.18;;;14.40;88.30;;;;;;5456092;26;20326;-73
2024/04/12 05:06:24;;;;;;;16.80;9.68;;;;;;;;;;5486874;26;20867;-73
2024/04/12 05:08:53;;;;;;;20.83;9.50;;;14.40;88.20;;;;;;5485722;26;20373;-72
2024/04/12 05:11:19;;;;;;;17.38;9.35;;;14.50;87.20;;;;;;5485273;26;20362;-71
2024/04/12 05:13:49;;;;;;;17.05;8.90;;;14.40;87.80;;;;;;5485949;26;20328;-73
2024/04/12 05:16:19;;;;;;;18.40;8.82;;;14.50;87.60;;;;;;5485215;26;20483;-73
2024/04/12 05:18:49;;;;;;;15.98;8.95;;;14.40;89.50;;;;;;5485130;26;20326;-72
2024/04/12 05:21:15;;;;;;;14.00;7.90;;;14.40;89.60;;;;;;5484966;26;20392;-73
2024/04/12 05:23:41;;;;;;;22.85;8.35;;;14.40;89.10;;;;;;5484070;26;20326;-72
2024/04/12 05:26:09;;;;;;;13.77;7.60;;;14.40;88.10;;;;;;5486043;26;20366;-72
2024/04/12 05:28:35;;;;;;;15.95;7.40;;;14.50;85.80;;;;;;5488209;26;20326;-74
2024/04/12 05:31:02;;;;;;;14.00;7.35;;;14.50;85.00;;;;;;5488478;26;20399;-73
2024/04/12 05:33:29;;;;;;;15.18;7.10;;;14.70;84.30;;;;;;5488210;26;20903;-74
2024/04/12 05:35:56;;;;;;;20.98;8.95;;;14.60;84.80;;;;;;5488993;26;20318;-72
2024/04/12 05:38:21;;;;;;;21.58;9.32;;;14.60;83.80;;;;;;5488629;26;20366;-73
2024/04/12 05:40:57;;;;;;;14.73;7.57;;;14.70;83.90;;;;;;5488324;26;20323;-74
2024/04/12 05:43:25;;;;;;;17.85;8.60;;;14.70;84.10;;;;;;5487425;26;20326;-73
2024/04/12 05:45:51;;;;;;;15.30;7.00;;;14.70;84.10;;;;;;5488203;26;20326;-74
2024/04/12 05:48:18;;;;;;;12.90;7.20;;;14.70;83.90;;;;;;5487811;26;20330;-73
2024/04/12 05:50:48;;;;;;;12.55;7.28;;;14.70;81.30;;;;;;5487602;26;20338;-72
2024/04/12 05:53:14;;;;;;;13.30;7.20;;;14.90;79.20;;;;;;5455951;26;20330;-72
2024/04/12 05:56:20;;;;;;;13.90;6.57;;;14.90;79.70;;;;;;5487987;26;20370;-72
2024/04/12 05:58:40;;;;;;;11.98;6.30;;;14.90;77.60;;;;;;5487729;26;20799;-72
2024/04/12 06:01:07;;;;;;;17.00;8.43;;;15.00;76.70;;;;;;5488103;26;20729;-72
2024/04/12 06:03:34;;;;;;;10.23;6.57;;;15.00;77.10;;;;;;5487551;26;20949;-73
2024/04/12 06:05:59;;;;;;;14.10;7.50;;;15.00;76.20;;;;;;5488007;26;20875;-73
2024/04/12 06:08:25;;;;;;;12.43;6.77;;;15.00;75.10;;;;;;5487433;26;20367;-71
2024/04/12 06:10:51;;;;;;;11.63;6.30;;;15.10;73.80;;;;;;5486652;26;20424;-72
2024/04/12 06:13:17;;;;;;;16.80;6.72;;;15.10;74.70;;;;;;5487907;26;20677;-73
2024/04/12 06:15:43;;;;;;;16.38;7.85;;;15.00;74.00;;;;;;5488360;26;20836;-74
2024/04/12 06:18:13;;;;;;;12.35;6.53;;;15.20;71.90;;;;;;5488625;26;20723;-72
2024/04/12 06:20:39;;;;;;;12.57;7.00;;;15.20;72.50;;;;;;5487010;26;20355;-72
2024/04/12 06:23:10;;;;;;;13.43;7.63;;;15.10;73.50;;;;;;5487239;26;20377;-73
2024/04/12 06:25:44;;;;;;;15.23;8.27;;;15.50;73.70;;;;;;5487592;26;20374;-72
2024/04/12 06:28:13;;;;;;;14.13;7.15;;;15.20;73.80;;;;;;5486942;26;21006;-73
2024/04/12 06:30:48;;;;;;;14.27;7.30;;;15.30;72.20;;;;;;5487370;26;20358;-72
2024/04/12 06:33:20;;;;;;;20.02;9.23;;;15.40;71.40;;;;;;5486891;26;20326;-73
2024/04/12 06:35:49;;;;;;;17.17;7.55;;;15.40;71.30;;;;;;5488055;26;20931;-75
2024/04/12 06:38:21;;;;;;;19.70;9.40;;;15.40;70.00;;;;;;5487374;26;20326;-72
2024/04/12 06:40:55;;;;;;;13.27;7.90;;;15.50;69.10;;;;;;5488210;26;20386;-73
2024/04/12 06:43:21;;;;;;;14.00;7.90;;;15.50;69.40;;;;;;5455723;26;20330;-72
2024/04/12 06:46:02;;;;;;;17.25;7.38;;;15.60;68.40;;;;;;5487797;26;20375;-72
2024/04/12 06:48:28;;;;;;;13.80;7.38;;;15.70;66.80;;;;;;5486436;26;20334;-72
2024/04/12 06:50:59;;;;;;;17.40;7.63;;;15.70;67.80;;;;;;5486377;26;20523;-72
2024/04/12 06:53:25;;;;;;;16.60;6.82;;;15.70;66.80;;;;;;5453283;26;20688;-73
2024/04/12 06:55:55;;;;;;;15.10;7.97;;;15.90;65.30;;;;;;5453999;26;20330;-72
2024/04/12 06:58:21;;;;;;;11.03;6.90;;;15.90;63.00;;;;;;5486907;26;20744;-72
2024/04/12 07:00:56;;;;;;;19.00;6.80;;;15.90;63.10;;;;;;5487452;26;20490;-73
2024/04/12 07:03:22;;;;;;;11.10;6.57;;;16.00;63.20;;;;;;5481681;26;20322;-73
2024/04/12 07:05:48;;;;;;;11.23;5.90;;;15.90;63.60;;;;;;5472360;26;20360;-75
2024/04/12 07:08:16;;;;;;;12.63;6.00;;;15.90;63.40;;;;;;5471569;26;20471;-73
2024/04/12 07:10:48;;;;;;;9.50;5.70;;;16.00;62.00;;;;;;5438675;26;20341;-74
2024/04/12 07:13:17;;;;;;;11.38;6.22;;;15.90;62.40;;;;;;5451196;26;20329;-72
2024/04/12 07:15:46;;;;;;;11.88;6.47;;;15.90;61.70;;;;;;5486882;26;20338;-72
2024/04/12 07:18:12;;;;;;;10.82;6.28;;;15.90;62.40;;;;;;5487177;26;20346;-73
2024/04/12 07:20:44;;;;;;;11.15;6.80;;;15.80;62.90;;;;;;5486990;26;20420;-73
2024/04/12 07:23:11;;;;;;;11.53;6.03;;;15.80;63.50;;;;;;5486721;26;20323;-72
2024/04/12 07:25:39;;;;;;;10.85;5.55;;;16.00;62.70;;;;;;5486393;26;20338;-74
2024/04/12 07:28:08;;;;;;;11.93;5.57;;;16.20;61.10;;;;;;5487296;26;20367;-74
2024/04/12 07:30:33;;;;;;;8.75;5.38;;;16.50;59.20;;;;;;5486428;26;20362;-73
2024/04/12 07:32:59;;;;;;;11.47;5.80;;;16.70;56.10;;;;;;5486466;26;20370;-73
2024/04/12 07:35:26;;;;;;;12.40;5.78;;;16.80;54.40;;;;;;5486912;26;20670;-72
2024/04/12 07:37:55;;;;;;;11.27;5.60;;;16.90;53.50;;;;;;5487029;26;20370;-74
2024/04/12 07:40:24;;;;;;;12.38;5.07;;;16.90;53.60;;;;;;5486701;26;20795;-72
2024/04/12 07:42:52;;;;;;;13.73;6.40;;;17.00;52.00;;;;;;5485762;26;20366;-73
2024/04/12 07:45:23;;;;;;;9.30;5.07;;;17.10;52.30;;;;;;5486352;26;20392;-73
2024/04/12 07:47:53;;;;;;;11.15;6.57;;;17.40;50.80;;;;;;5486149;26;20338;-74
2024/04/12 07:50:30;;;;;;;11.52;5.63;;;17.50;50.10;;;;;;5486425;26;20334;-73
2024/04/12 07:53:21;;;;;;;10.35;4.93;;;17.50;49.30;;;;;;5486699;26;20820;-73
2024/04/12 07:55:55;;;;;;;12.90;6.40;;;17.70;48.30;;;;;;5489901;26;20883;-72
2024/04/12 07:58:26;;;;;;;11.45;5.80;;;17.70;47.20;;;;;;5486543;26;20334;-72
2024/04/12 08:00:54;;;;;;;9.32;5.50;;;17.70;47.50;;;;;;5486705;26;20322;-72
2024/04/12 08:03:19;;;;;;;16.20;6.63;;;17.80;47.50;;;;;;5486303;26;20886;-73
2024/04/12 08:06:03;;;;;;;12.50;6.20;;;17.70;47.70;;;;;;5488578;26;20326;-73
2024/04/12 08:08:46;;;;;;;14.33;5.47;;;17.70;47.90;;;;;;5488166;26;20330;-73
2024/04/12 08:11:34;;;;;;;10.90;6.35;;;17.80;47.40;;;;;;5487585;26;20502;-72
2024/04/12 08:14:06;;;;;;;9.95;5.60;;;18.00;46.10;;;;;;5486349;26;20374;-72
2024/04/12 08:16:36;;;;;;;15.48;6.25;;;18.00;45.40;;;;;;5487064;26;20756;-74
2024/04/12 08:19:14;;;;;;;11.55;6.28;;;18.10;45.30;;;;;;5493437;26;20327;-73
2024/04/12 08:21:44;;;;;;;13.85;6.15;;;18.10;44.60;;;;;;5486350;26;20337;-73
2024/04/12 08:24:10;;;;;;;11.55;5.90;;;18.20;44.20;;;;;;5485762;26;20337;-72
2024/04/12 08:26:45;;;;;;;12.02;6.50;;;18.20;44.60;;;;;;5485945;26;20945;-74
2024/04/12 08:29:20;;;;;;;12.25;6.47;;;18.20;44.40;;;;;;5485848;26;20395;-73
2024/04/12 08:31:48;;;;;;;14.52;6.90;;;18.20;44.40;;;;;;5485496;26;20338;-72
2024/04/12 08:34:15;;;;;;;11.70;6.40;;;18.50;43.50;;;;;;5485170;26;20390;-71
2024/04/12 08:36:43;;;;;;;12.25;6.40;;;18.70;42.60;;;;;;5484755;26;20334;-72
2024/04/12 08:39:12;;;;;;;14.40;8.07;;;18.80;41.90;;;;;;5485550;26;20334;-71
2024/04/12 08:41:38;;;;;;;13.30;6.40;;;18.80;41.40;;;;;;5485920;26;20808;-74
2024/04/12 08:44:09;;;;;;;13.37;5.83;;;18.90;41.30;;;;;;5485457;26;20950;-73
2024/04/12 08:46:37;;;;;;;13.02;6.47;;;18.90;41.50;;;;;;5485445;26;20386;-73
2024/04/12 08:49:03;;;;;;;15.95;6.88;;;19.10;41.00;;;;;;5485946;26;20760;-73
2024/04/12 08:51:32;;;;;;;13.30;5.57;;;19.30;40.30;;;;;;5485484;26;20334;-73
2024/04/12 08:54:03;;;;;;;8.80;5.50;;;19.40;39.40;;;;;;5485634;26;20424;-73
2024/04/12 08:56:29;;;;;;;11.32;5.38;;;19.70;38.60;;;;;;5485632;26;20323;-73
2024/04/12 08:59:07;;;;;;;13.87;6.37;;;19.60;38.30;;;;;;5486927;26;20385;-74
2024/04/12 09:01:35;;;;;;;15.85;5.40;;;19.50;38.30;;;;;;5489395;26;20351;-73
2024/04/12 09:04:14;;;;;;;19.67;6.90;;;19.40;38.80;;;;;;5489104;26;20330;-73
2024/04/12 09:06:40;;;;;;;13.40;5.78;;;19.40;39.20;;;;;;5489195;26;20333;-73
2024/04/12 09:09:13;;;;;;;10.40;5.85;;;19.50;38.90;;;;;;5489848;26;20322;-73
2024/04/12 09:11:39;;;;;;;10.50;6.35;;;19.40;39.20;;;;;;5489116;26;20525;-74
2024/04/12 09:14:19;;;;;;;12.70;6.32;;;19.40;39.00;;;;;;5488716;26;20330;-73
2024/04/12 09:16:48;;;;;;;13.55;5.80;;;19.50;39.10;;;;;;5489314;26;20350;-71
2024/04/12 09:19:14;;;;;;;11.40;5.90;;;19.50;38.80;;;;;;5489687;26;20804;-73
2024/04/12 09:21:47;;;;;;;14.13;6.90;;;19.50;39.10;;;;;;5489274;26;20342;-72
2024/04/12 09:24:21;;;;;;;19.92;7.50;;;19.60;38.80;;;;;;5488663;26;20701;-73
2024/04/12 09:26:58;;;;;;;11.25;6.03;;;19.60;38.60;;;;;;5489441;26;21062;-72
2024/04/12 09:29:28;;;;;;;11.63;6.05;;;19.70;38.50;;;;;;5489822;26;20318;-72
2024/04/12 09:34:46;;;;;;;16.55;6.50;;;20.10;37.20;;;;;;5493392;26;20735;-73
2024/04/12 09:45:21;;;;;;;11.40;5.45;;;20.50;35.30;;;;;;5487668;26;20419;-73
2024/04/12 10:38:02;;;;;;;10.43;5.17;;;21.80;30.40;;;;;;5489307;26;20441;-72
2024/04/12 10:40:30;;;;;;;10.07;3.78;;;21.80;30.70;;;;;;5456441;26;20734;-74
2024/04/12 10:42:57;;;;;;;11.27;4.40;;;22.10;30.10;;;;;;5487992;26;20330;-73
2024/04/12 10:45:25;;;;;;;7.03;3.67;;;21.90;29.70;;;;;;5487654;26;20318;-73
2024/04/12 10:47:54;;;;;;;11.73;4.45;;;21.80;30.20;;;;;;5457295;26;20330;-74
2024/04/12 10:50:23;;;;;;;9.70;4.00;;;21.70;30.10;;;;;;5489552;26;20808;-72
2024/04/12 10:52:49;;;;;;;13.85;4.43;;;21.90;29.60;;;;;;5488661;26;20378;-72
2024/04/12 10:55:19;;;;;;;10.32;4.22;;;21.90;28.80;;;;;;5488004;26;20326;-75
2024/04/12 10:57:49;;;;;;;14.05;3.97;;;22.20;29.00;;;;;;5488108;26;20330;-71
2024/04/12 11:00:16;;;;;;;11.52;3.80;;;22.40;28.30;;;;;;5488898;26;20361;-73
2024/04/12 11:02:43;;;;;;;10.75;3.90;;;22.60;27.40;;;;;;5488814;26;20721;-72
2024/04/12 11:07:46;;;;;;;12.25;4.03;;;23.00;26.80;;;;;;5488842;26;20387;-71
2024/04/12 11:10:23;;;;;;;13.10;3.50;;;23.10;26.00;;;;;;5489566;26;20333;-73
2024/04/12 11:12:59;;;;;;;9.70;3.60;;;23.10;26.10;;;;;;5488830;26;20380;-73
2024/04/12 11:31:55;;;;;;;8.05;3.15;;;22.70;26.70;;;;;;5485891;26;20382;-74
2024/04/12 11:34:21;;;;;;;7.70;3.63;;;22.70;26.30;;;;;;5486748;26;20394;-74
2024/04/12 11:36:46;;;;;;;5.23;2.70;;;23.00;25.90;;;;;;5486620;26;20322;-73
2024/04/12 11:39:25;;;;;;;11.77;4.53;;;22.90;25.50;;;;;;5486063;26;20410;-72
2024/04/12 11:41:52;;;;;;;10.90;4.97;;;23.20;24.50;;;;;;5485559;26;20448;-73
2024/04/12 11:44:18;;;;;;;8.23;2.63;;;23.10;25.20;;;;;;5485711;26;20835;-73
2024/04/12 11:46:48;;;;;;;10.00;2.80;;;23.40;23.30;;;;;;5485123;26;20334;-74
2024/04/12 11:49:25;;;;;;;6.75;2.28;;;23.40;23.90;;;;;;5485790;26;20637;-73
2024/04/12 11:51:57;;;;;;;9.52;2.70;;;23.40;23.00;;;;;;5485498;26;20847;-74
2024/04/12 11:54:29;;;;;;;7.47;2.70;;;23.50;23.20;;;;;;5485358;26;20370;-75
2024/04/12 11:56:59;;;;;;;5.00;2.20;;;23.30;23.10;;;;;;5485855;26;20326;-73
2024/04/12 11:59:27;;;;;;;6.20;2.25;;;23.30;23.80;;;;;;5485455;26;20314;-74
2024/04/12 12:01:58;;;;;;;6.47;2.10;;;23.30;24.10;;;;;;5486516;26;20355;-74
2024/04/12 12:04:27;;;;;;;4.38;2.03;;;22.70;24.80;;;;;;5486224;26;20354;-72
2024/04/12 12:06:54;;;;;;;5.95;2.35;;;22.70;25.20;;;;;;5486808;26;20400;-72
2024/04/12 12:09:20;;;;;;;7.97;2.47;;;22.70;25.10;;;;;;5486781;26;20319;-72
2024/04/12 12:11:49;;;;;;;7.55;2.40;;;22.60;25.30;;;;;;5485778;26;20362;-74
2024/04/12 12:14:16;;;;;;;8.00;2.70;;;22.60;25.70;;;;;;5486097;26;20633;-73
2024/04/12 12:16:41;;;;;;;5.97;2.30;;;22.70;24.90;;;;;;5486189;26;20342;-74
2024/04/12 12:19:07;;;;;;;7.50;2.80;;;22.80;24.60;;;;;;5485647;26;20686;-74
2024/04/12 12:21:33;;;;;;;5.30;1.90;;;23.00;23.90;;;;;;5485647;26;20780;-73
2024/04/12 12:23:59;;;;;;;3.17;2.00;;;23.30;23.00;;;;;;5485166;26;20438;-73
2024/04/12 12:26:25;;;;;;;5.43;2.30;;;23.10;23.30;;;;;;5485814;26;20322;-74
2024/04/12 12:28:51;;;;;;;4.73;2.10;;;23.10;23.60;;;;;;5485768;26;20784;-73
2024/04/12 12:31:18;;;;;;;6.03;2.10;;;23.20;23.00;;;;;;5484523;26;20306;-72
2024/04/12 12:33:45;;;;;;;5.20;1.77;;;23.10;22.50;;;;;;5484858;26;20415;-73
2024/04/12 12:36:11;;;;;;;5.78;1.90;;;23.10;22.90;;;;;;5484396;26;20363;-73
2024/04/12 12:38:40;;;;;;;8.15;2.22;;;23.00;22.50;;;;;;5485147;26;20491;-73
2024/04/12 12:41:06;;;;;;;3.60;1.80;;;22.80;23.30;;;;;;5485152;26;20327;-73
2024/04/12 12:43:32;;;;;;;8.48;1.80;;;22.60;23.40;;;;;;5484866;26;20318;-73
2024/04/12 12:45:58;;;;;;;4.45;1.88;;;22.40;24.40;;;;;;5452988;26;20338;-75
2024/04/12 12:48:27;;;;;;;4.00;2.00;;;22.40;24.70;;;;;;5485572;26;20326;-74
2024/04/12 12:50:54;;;;;;;5.63;2.35;;;22.30;24.60;;;;;;5485143;26;20334;-73
2024/04/12 12:53:22;;;;;;;6.55;2.90;;;22.30;24.40;;;;;;5484905;26;20350;-74
2024/04/12 12:55:49;;;;;;;10.30;3.67;;;22.40;24.80;;;;;;5485011;26;20323;-71
2024/04/12 12:58:18;;;;;;;5.65;2.60;;;22.80;24.20;;;;;;5485063;26;20334;-74
2024/04/12 13:00:47;;;;;;;7.25;2.38;;;23.20;22.60;;;;;;5485702;26;20322;-73
2024/04/12 13:03:17;;;;;;;7.57;2.90;;;23.40;22.40;;;;;;5484905;26;20330;-73
2024/04/12 13:05:48;;;;;;;4.82;2.40;;;23.70;21.10;;;;;;5459415;26;20334;-74
2024/04/12 13:08:15;;;;;;;6.97;2.60;;;23.70;20.80;;;;;;5487939;26;20878;-73
2024/04/12 13:10:46;;;;;;;4.35;2.15;;;23.70;20.50;;;;;;5484479;26;20706;-72
2024/04/12 13:13:17;;;;;;;6.47;2.60;;;23.70;20.90;;;;;;5484751;26;20742;-72
2024/04/12 13:15:44;;;;;;;13.68;3.78;;;23.60;21.30;;;;;;5485133;26;20832;-73
2024/04/12 13:18:10;;;;;;;6.40;3.00;;;23.50;22.00;;;;;;5484356;26;20367;-74
2024/04/12 13:20:36;;;;;;;6.43;2.47;;;23.20;22.40;;;;;;5483943;26;20938;-73
2024/04/12 13:23:02;;;;;;;6.45;2.28;;;23.20;22.20;;;;;;5483993;26;20365;-73
2024/04/12 13:25:28;;;;;;;9.20;2.30;;;23.20;22.70;;;;;;5484245;26;20354;-73
2024/04/12 13:27:54;;;;;;;4.93;2.20;;;23.10;22.10;;;;;;5484701;26;20373;-72
2024/04/12 13:30:21;;;;;;;3.90;2.10;;;23.00;22.40;;;;;;5484255;26;20812;-73
2024/04/12 13:32:53;;;;;;;6.53;2.30;;;22.90;22.70;;;;;;5484821;26;20375;-74
2024/04/12 13:35:21;;;;;;;4.53;2.30;;;23.00;22.40;;;;;;5484079;26;20416;-74
2024/04/12 13:37:48;;;;;;;6.55;2.38;;;23.10;22.60;;;;;;5484450;26;20370;-73
2024/04/12 13:40:20;;;;;;;6.00;2.60;;;23.00;22.80;;;;;;5484586;26;20388;-74
2024/04/12 13:42:48;;;;;;;6.70;3.00;;;22.90;23.00;;;;;;5484453;26;20361;-74
2024/04/12 13:50:58;;;;;;;5.43;2.75;;;22.00;23.80;;;;;;5487523;26;20349;-73
2024/04/12 13:53:35;;;;;;;5.28;2.90;;;21.70;25.10;;;;;;5486215;26;20322;-72
2024/04/12 13:56:48;;;;;;;8.17;2.90;;;21.70;25.40;;;;;;5485999;26;20326;-72
2024/04/12 13:58:59;;;;;;;4.07;2.70;;;21.60;25.50;;;;;;5468221;26;20362;-73
2024/04/12 14:01:31;;;;;;;7.40;2.70;;;21.60;25.40;;;;;;5455635;26;20788;-73
2024/04/12 14:04:04;;;;;;;4.63;2.70;;;21.80;25.00;;;;;;5487159;26;20322;-73
2024/04/12 14:06:34;;;;;;;6.20;2.50;;;22.20;24.20;;;;;;5455678;26;20958;-74
2024/04/12 14:09:02;;;;;;;7.32;3.00;;;23.00;22.20;;;;;;5487429;26;20351;-72
2024/04/12 14:11:27;;;;;;;7.23;3.20;;;24.00;19.90;;;;;;5487016;26;20374;-73
2024/04/12 14:13:54;;;;;;;6.83;2.70;;;24.60;19.30;;;;;;5486878;26;20318;-72
2024/04/12 14:16:28;;;;;;;6.63;2.97;;;24.80;18.40;;;;;;5487546;26;20720;-73
2024/04/12 14:19:00;;;;;;;11.30;2.85;;;24.60;18.20;;;;;;5487747;26;20330;-74
2024/04/12 14:21:26;;;;;;;8.30;2.50;;;24.30;19.20;;;;;;5487951;26;20326;-72